createdAt,value
2023-06-02T00:01:20.734Z,9.45
2023-06-02T00:04:27.528Z,9.35
2023-06-02T00:07:31.696Z,9.43
2023-06-02T00:10:35.529Z,9.49
2023-06-02T00:13:43.236Z,9.37
2023-06-02T00:16:48.244Z,9.43
2023-06-02T00:19:52.129Z,9.42
2023-06-02T00:22:55.821Z,9.49
2023-06-02T00:26:00.004Z,9.46
2023-06-02T00:29:05.132Z,9.46
2023-06-02T00:32:09.656Z,9.52
2023-06-02T00:35:13.411Z,9.55
2023-06-02T00:38:17.186Z,9.60
2023-06-02T00:41:20.862Z,9.57
2023-06-02T00:44:25.878Z,9.57
2023-06-02T00:47:29.485Z,9.49
2023-06-02T00:50:35.207Z,9.53
2023-06-02T00:53:40.358Z,9.48
2023-06-02T00:56:43.981Z,9.62
2023-06-02T00:59:49.797Z,9.51
2023-06-02T01:02:53.425Z,9.43
2023-06-02T01:06:01.918Z,9.38
2023-06-02T01:09:07.494Z,9.46
2023-06-02T01:12:12.033Z,9.41
2023-06-02T01:15:17.056Z,9.43
2023-06-02T01:18:26.479Z,9.47
2023-06-02T01:21:38.628Z,9.43
2023-06-02T01:24:45.986Z,9.37
2023-06-02T01:27:49.735Z,9.30
2023-06-02T01:31:01.261Z,9.35
2023-06-02T01:34:15.474Z,9.30
2023-06-02T01:37:21.482Z,9.38
2023-06-02T01:40:28.330Z,9.34
2023-06-02T01:43:34.482Z,9.33
2023-06-02T01:46:38.308Z,9.30
2023-06-02T01:49:42.240Z,9.35
2023-06-02T01:52:45.909Z,9.29
2023-06-02T01:55:50.954Z,9.25
2023-06-02T01:58:54.973Z,9.38
2023-06-02T02:01:58.690Z,9.36
2023-06-02T02:05:03.869Z,9.35
2023-06-02T02:08:07.634Z,9.43
2023-06-02T02:11:13.149Z,9.40
2023-06-02T02:14:16.890Z,9.47
2023-06-02T02:17:20.598Z,9.46
2023-06-02T02:20:24.824Z,9.54
2023-06-02T02:23:28.529Z,9.52
2023-06-02T02:26:33.705Z,9.54
2023-06-02T02:29:38.637Z,9.51
2023-06-02T02:32:45.915Z,9.49
2023-06-02T02:35:49.627Z,9.50
2023-06-02T02:38:53.196Z,9.54
2023-06-02T02:41:58.268Z,9.30
2023-06-02T02:45:01.905Z,9.35
2023-06-02T02:48:06.172Z,9.42
2023-06-02T02:51:09.909Z,9.47
2023-06-02T02:54:13.521Z,9.45
2023-06-02T02:57:18.528Z,9.48
2023-06-02T03:00:22.674Z,9.35
2023-06-02T03:03:28.103Z,9.40
2023-06-02T03:06:33.102Z,9.38
2023-06-02T03:09:36.875Z,9.35
2023-06-02T03:12:41.864Z,9.42
2023-06-02T03:15:45.845Z,9.40
2023-06-02T03:18:49.613Z,9.43
2023-06-02T03:21:53.916Z,9.48
2023-06-02T03:24:57.553Z,9.47
2023-06-02T03:28:03.520Z,9.51
2023-06-02T03:31:07.325Z,9.55
2023-06-02T03:34:11.203Z,9.65
2023-06-02T03:37:14.851Z,9.68
2023-06-02T03:40:18.396Z,9.66
2023-06-02T03:43:23.440Z,9.72
2023-06-02T03:46:27.097Z,9.72
2023-06-02T03:49:34.465Z,9.84
2023-06-02T03:52:38.495Z,9.92
2023-06-02T03:55:42.174Z,9.92
2023-06-02T03:58:47.232Z,9.97
2023-06-02T04:01:51.752Z,9.96
2023-06-02T04:04:55.466Z,10.11
2023-06-02T04:07:59.088Z,10.22
2023-06-02T04:11:03.525Z,10.02
2023-06-02T04:14:09.446Z,10.08
2023-06-02T04:17:13.081Z,9.99
2023-06-02T04:20:16.911Z,10.05
2023-06-02T04:23:20.597Z,10.02
2023-06-02T04:26:24.201Z,10.23
2023-06-02T04:29:29.578Z,10.30
2023-06-02T04:32:34.027Z,10.36
2023-06-02T04:35:38.193Z,10.58
2023-06-02T04:38:42.085Z,10.54
2023-06-02T04:41:47.285Z,10.43
2023-06-02T04:44:52.607Z,10.44
2023-06-02T04:47:56.394Z,10.81
2023-06-02T04:51:00.090Z,11.06
2023-06-02T04:54:03.908Z,11.39
2023-06-02T04:57:08.647Z,11.63
2023-06-02T05:00:16.593Z,11.52
2023-06-02T05:03:20.596Z,11.29
2023-06-02T05:06:24.552Z,10.84
2023-06-02T05:09:28.325Z,11.46
2023-06-02T05:12:32.186Z,10.91
2023-06-02T05:15:38.040Z,11.32
2023-06-02T05:18:41.929Z,11.14
2023-06-02T05:21:45.714Z,11.18
2023-06-02T05:24:49.396Z,11.53
2023-06-02T05:27:53.011Z,11.46
2023-06-02T05:30:58.063Z,12.35
2023-06-02T05:34:02.041Z,12.76
2023-06-02T05:37:06.298Z,12.39
2023-06-02T05:40:12.804Z,11.86
2023-06-02T05:43:17.833Z,11.96
2023-06-02T05:46:23.212Z,12.08
2023-06-02T05:49:26.987Z,12.17
2023-06-02T05:52:30.813Z,12.55
2023-06-02T05:55:34.358Z,12.72
2023-06-02T05:58:40.001Z,12.87
2023-06-02T06:01:44.953Z,13.09
2023-06-02T06:04:48.736Z,13.19
2023-06-02T06:07:52.334Z,13.01
2023-06-02T06:10:56.227Z,13.03
2023-06-02T06:14:01.745Z,13.57
2023-06-02T06:17:07.290Z,13.65
2023-06-02T06:20:12.606Z,13.69
2023-06-02T06:23:16.585Z,14.01
2023-06-02T06:26:22.704Z,14.20
2023-06-02T06:29:26.401Z,14.28
2023-06-02T06:32:31.565Z,13.97
2023-06-02T06:35:35.760Z,14.20
2023-06-02T06:38:39.386Z,14.97
2023-06-02T06:41:43.695Z,15.37
2023-06-02T06:44:47.307Z,14.67
2023-06-02T06:47:52.797Z,15.64
2023-06-02T06:50:56.503Z,16.00
2023-06-02T06:54:00.181Z,16.24
2023-06-02T06:57:03.844Z,15.75
2023-06-02T07:00:10.124Z,15.86
2023-06-02T07:03:15.609Z,17.88
2023-06-02T07:06:19.462Z,18.06
2023-06-02T07:09:23.332Z,17.82
2023-06-02T07:12:26.974Z,16.77
2023-06-02T07:15:30.743Z,17.95
2023-06-02T07:18:36.531Z,16.89
2023-06-02T07:21:40.400Z,17.01
2023-06-02T07:24:45.478Z,16.33
2023-06-02T07:27:49.118Z,17.10
2023-06-02T07:31:01.276Z,17.45
2023-06-02T07:34:14.323Z,17.88
2023-06-02T07:37:17.969Z,17.58
2023-06-02T07:40:21.789Z,17.19
2023-06-02T07:43:25.585Z,17.66
2023-06-02T07:46:29.360Z,18.93
2023-06-02T07:49:34.480Z,16.95
2023-06-02T07:52:38.983Z,16.92
2023-06-02T07:55:42.880Z,19.16
2023-06-02T07:58:47.819Z,18.40
2023-06-02T08:01:51.903Z,17.22
2023-06-02T08:04:57.022Z,17.20
2023-06-02T08:08:00.956Z,18.56
2023-06-02T08:11:04.904Z,17.54
2023-06-02T08:14:08.936Z,18.91
2023-06-02T08:17:12.567Z,20.30
2023-06-02T08:20:18.663Z,20.31
2023-06-02T08:23:22.754Z,19.76
2023-06-02T08:26:27.910Z,19.87
2023-06-02T08:29:32.592Z,19.49
2023-06-02T08:32:36.332Z,18.64
2023-06-02T08:35:41.847Z,18.12
2023-06-02T08:38:45.866Z,17.41
2023-06-02T08:41:52.431Z,16.70
2023-06-02T08:44:56.339Z,18.92
2023-06-02T08:48:00.132Z,18.99
2023-06-02T08:51:12.912Z,20.27
2023-06-02T08:54:16.984Z,19.86
2023-06-02T08:57:22.989Z,19.46
2023-06-02T09:00:26.934Z,18.81
2023-06-02T09:03:45.553Z,19.32
2023-06-02T09:06:52.171Z,18.33
2023-06-02T09:09:58.482Z,19.86
2023-06-02T09:13:02.450Z,20.33
2023-06-02T09:16:06.737Z,19.33
2023-06-02T09:19:10.606Z,18.12
2023-06-02T09:22:15.978Z,17.29
2023-06-02T09:25:24.193Z,17.32
2023-06-02T09:28:27.751Z,17.12
2023-06-02T09:31:45.220Z,17.47
2023-06-02T09:34:50.258Z,17.86
2023-06-02T09:37:58.756Z,18.65
2023-06-02T09:41:19.475Z,18.09
2023-06-02T09:44:24.725Z,17.99
2023-06-02T09:47:28.612Z,17.64
2023-06-02T09:50:38.271Z,17.12
2023-06-02T09:53:43.684Z,17.42
2023-06-02T09:56:48.382Z,17.03
2023-06-02T09:59:52.257Z,17.29
2023-06-02T10:02:56.035Z,17.20
2023-06-02T10:06:14.021Z,16.62
2023-06-02T10:09:42.449Z,16.70
2023-06-02T10:13:16.856Z,17.11
2023-06-02T10:16:39.841Z,17.13
2023-06-02T10:20:05.623Z,17.38
2023-06-02T10:23:37.257Z,17.40
2023-06-02T10:27:07.266Z,17.33
2023-06-02T10:30:15.181Z,17.19
2023-06-02T10:33:46.504Z,17.71
2023-06-02T10:37:19.153Z,18.10
2023-06-02T10:40:53.245Z,18.04
2023-06-02T10:44:25.305Z,17.92
2023-06-02T10:47:39.184Z,17.88
2023-06-02T10:50:55.565Z,17.49
2023-06-02T10:54:17.496Z,17.18
2023-06-02T10:57:51.333Z,17.47
2023-06-02T11:00:56.411Z,18.11
2023-06-02T11:04:00.248Z,18.46
2023-06-02T11:07:20.196Z,17.98
2023-06-02T11:10:45.917Z,18.30
2023-06-02T11:14:01.151Z,18.49
2023-06-02T11:17:34.379Z,18.30
2023-06-02T11:20:38.634Z,17.97
2023-06-02T11:23:44.501Z,18.49
2023-06-02T11:26:52.171Z,18.75
2023-06-02T11:30:11.912Z,18.61
2023-06-02T11:33:17.057Z,18.05
2023-06-02T11:36:29.248Z,17.90
2023-06-02T11:39:32.835Z,17.59
2023-06-02T11:42:42.072Z,16.98
2023-06-02T11:45:45.725Z,17.13
2023-06-02T11:48:51.396Z,16.92
2023-06-02T11:51:58.913Z,16.93
2023-06-02T11:55:05.360Z,16.96
2023-06-02T11:58:24.369Z,17.13
2023-06-02T12:01:34.066Z,17.25
2023-06-02T12:04:45.574Z,17.48
2023-06-02T12:07:49.566Z,17.62
2023-06-02T12:10:57.254Z,17.62
2023-06-02T12:14:05.613Z,17.43
2023-06-02T12:17:09.330Z,17.56
2023-06-02T12:20:14.712Z,18.12
2023-06-02T12:23:18.292Z,17.97
2023-06-02T12:26:22.706Z,18.14
2023-06-02T12:29:27.172Z,17.69
2023-06-02T12:32:31.347Z,17.54
2023-06-02T12:35:37.271Z,17.73
2023-06-02T12:38:41.681Z,17.85
2023-06-02T12:41:45.457Z,18.23
2023-06-02T12:44:50.284Z,18.69
2023-06-02T12:47:55.292Z,18.47
2023-06-02T12:51:00.457Z,18.33
2023-06-02T12:54:04.331Z,18.60
2023-06-02T12:57:09.702Z,18.52
2023-06-02T13:00:14.520Z,18.91
2023-06-02T13:03:18.121Z,18.98
2023-06-02T13:06:23.351Z,19.26
2023-06-02T13:09:27.232Z,18.77
2023-06-02T13:12:30.802Z,18.78
2023-06-02T13:15:34.413Z,18.66
2023-06-02T13:18:38.013Z,18.49
2023-06-02T13:21:43.365Z,18.28
2023-06-02T13:24:48.139Z,18.55
2023-06-02T13:27:51.857Z,18.60
2023-06-02T13:30:55.599Z,18.52
2023-06-02T13:33:59.268Z,18.33
2023-06-02T13:37:04.216Z,18.19
2023-06-02T13:40:09.332Z,18.23
2023-06-02T13:43:13.206Z,18.17
2023-06-02T13:46:17.156Z,17.99
2023-06-02T13:49:21.393Z,17.89
2023-06-02T13:52:26.450Z,17.81
2023-06-02T13:55:31.447Z,18.29
2023-06-02T13:58:37.177Z,18.24
2023-06-02T14:01:42.138Z,18.77
2023-06-02T14:04:45.931Z,18.67
2023-06-02T14:07:51.159Z,19.11
2023-06-02T14:10:54.810Z,19.09
2023-06-02T14:13:58.540Z,19.18
2023-06-02T14:17:02.313Z,19.84
2023-06-02T14:20:07.298Z,18.97
2023-06-02T14:23:13.264Z,18.58
2023-06-02T14:26:17.396Z,18.29
2023-06-02T14:29:21.148Z,18.10
2023-06-02T14:32:24.808Z,18.15
2023-06-02T14:35:28.661Z,18.01
2023-06-02T14:38:33.776Z,17.93
2023-06-02T14:41:37.378Z,17.94
2023-06-02T14:44:41.080Z,17.90
2023-06-02T14:47:44.884Z,17.76
2023-06-02T14:50:50.659Z,17.96
2023-06-02T14:53:58.086Z,18.31
2023-06-02T14:57:04.554Z,18.38
2023-06-02T15:00:10.182Z,17.98
2023-06-02T15:03:14.208Z,17.92
2023-06-02T15:06:18.009Z,17.92
2023-06-02T15:09:23.146Z,17.84
2023-06-02T15:12:26.805Z,17.98
2023-06-02T15:15:37.688Z,17.97
2023-06-02T15:18:51.625Z,18.19
2023-06-02T15:21:57.826Z,17.93
2023-06-02T15:25:03.079Z,18.09
2023-06-02T15:28:06.925Z,18.80
2023-06-02T15:31:10.726Z,19.25
2023-06-02T15:34:14.705Z,18.83
2023-06-02T15:37:18.466Z,19.17
2023-06-02T15:40:23.732Z,18.88
2023-06-02T15:43:27.538Z,18.52
2023-06-02T15:46:31.280Z,18.49
2023-06-02T15:49:35.072Z,18.58
2023-06-02T15:52:38.947Z,18.27
2023-06-02T15:55:44.738Z,18.29
2023-06-02T15:58:48.392Z,18.15
2023-06-02T16:01:58.254Z,18.12
2023-06-02T16:05:02.165Z,17.99
2023-06-02T16:08:06.492Z,18.05
2023-06-02T16:11:11.636Z,18.27
2023-06-02T16:14:15.420Z,18.46
2023-06-02T16:17:19.155Z,18.93
2023-06-02T16:20:22.989Z,19.20
2023-06-02T16:23:26.669Z,19.43
2023-06-02T16:26:32.305Z,19.50
2023-06-02T16:29:36.143Z,19.33
2023-06-02T16:32:40.642Z,19.23
2023-06-02T16:35:44.431Z,19.31
2023-06-02T16:38:48.269Z,19.22
2023-06-02T16:41:53.313Z,19.29
2023-06-02T16:44:57.578Z,19.23
2023-06-02T16:48:01.218Z,19.15
2023-06-02T16:51:05.240Z,18.68
2023-06-02T16:54:10.798Z,18.72
2023-06-02T16:57:15.861Z,18.79
2023-06-02T17:00:21.366Z,18.26
2023-06-02T17:03:27.072Z,18.16
2023-06-02T17:06:31.665Z,18.29
2023-06-02T17:09:35.286Z,18.19
2023-06-02T17:12:40.386Z,18.08
2023-06-02T17:15:44.034Z,18.17
2023-06-02T17:18:47.674Z,18.05
2023-06-02T17:21:51.332Z,18.07
2023-06-02T17:24:55.375Z,18.10
2023-06-02T17:28:00.440Z,17.93
2023-06-02T17:31:06.175Z,17.88
2023-06-02T17:34:10.245Z,17.91
2023-06-02T17:37:14.278Z,17.66
2023-06-02T17:40:17.951Z,17.69
2023-06-02T17:43:22.934Z,17.52
2023-06-02T17:46:27.620Z,17.54
2023-06-02T17:49:33.345Z,17.56
2023-06-02T17:52:37.219Z,17.48
2023-06-02T17:55:43.178Z,17.43
2023-06-02T17:58:48.310Z,17.26
2023-06-02T18:01:52.109Z,17.19
2023-06-02T18:04:55.843Z,17.20
2023-06-02T18:07:59.477Z,17.00
2023-06-02T18:11:03.370Z,17.09
2023-06-02T18:14:08.479Z,16.94
2023-06-02T18:17:12.237Z,16.78
2023-06-02T18:20:16.012Z,16.69
2023-06-02T18:23:20.090Z,16.60
2023-06-02T18:26:23.810Z,16.59
2023-06-02T18:29:29.047Z,16.48
2023-06-02T18:32:32.760Z,16.49
2023-06-02T18:35:38.087Z,16.31
2023-06-02T18:38:41.886Z,16.29
2023-06-02T18:41:46.018Z,16.13
2023-06-02T18:44:51.029Z,16.03
2023-06-02T18:47:54.656Z,15.99
2023-06-02T18:50:58.262Z,15.97
2023-06-02T18:54:02.018Z,15.86
2023-06-02T18:57:08.405Z,15.79
2023-06-02T19:00:15.163Z,15.69
2023-06-02T19:03:19.780Z,15.64
2023-06-02T19:06:24.009Z,15.55
2023-06-02T19:09:27.630Z,15.50
2023-06-02T19:12:31.350Z,15.38
2023-06-02T19:15:36.981Z,15.29
2023-06-02T19:18:43.800Z,15.22
2023-06-02T19:24:52.276Z,14.98
2023-06-02T19:27:55.901Z,14.92
2023-06-02T19:31:01.036Z,14.89
2023-06-02T19:34:05.116Z,14.77
2023-06-02T19:37:10.200Z,14.69
2023-06-02T19:40:14.224Z,14.61
2023-06-02T19:43:17.909Z,14.50
2023-06-02T19:46:22.970Z,14.37
2023-06-02T19:49:27.649Z,14.29
2023-06-02T19:52:32.090Z,14.23
2023-06-02T19:55:35.812Z,14.13
2023-06-02T19:58:39.456Z,14.03
2023-06-02T20:01:44.617Z,13.97
2023-06-02T20:04:50.072Z,13.90
2023-06-02T20:07:53.822Z,13.82
2023-06-02T20:10:57.492Z,13.78
2023-06-02T20:14:02.012Z,13.65
2023-06-02T20:17:07.660Z,13.58
2023-06-02T20:20:14.206Z,13.48
2023-06-02T20:23:18.371Z,13.42
2023-06-02T20:26:22.546Z,13.36
2023-06-02T20:29:26.339Z,13.32
2023-06-02T20:32:31.567Z,13.20
2023-06-02T20:35:35.463Z,13.20
2023-06-02T20:38:39.299Z,13.15
2023-06-02T20:41:43.271Z,13.03
2023-06-02T20:44:47.730Z,12.98
2023-06-02T20:47:55.737Z,12.96
2023-06-02T20:50:59.504Z,12.91
2023-06-02T20:54:03.355Z,12.78
2023-06-02T20:57:08.087Z,12.73
2023-06-02T21:00:12.913Z,12.67
2023-06-02T21:03:18.226Z,12.59
2023-06-02T21:06:21.994Z,12.52
2023-06-02T21:09:26.578Z,12.48
2023-06-02T21:12:30.583Z,12.40
2023-06-02T21:15:36.435Z,12.29
2023-06-02T21:18:41.710Z,12.31
2023-06-02T21:21:45.351Z,12.22
2023-06-02T21:24:49.076Z,12.12
2023-06-02T21:27:52.791Z,12.08
2023-06-02T21:30:56.601Z,12.06
2023-06-02T21:34:01.638Z,11.95
2023-06-02T21:37:05.682Z,11.93
2023-06-02T21:40:11.037Z,11.86
2023-06-02T21:43:14.762Z,11.79
2023-06-02T21:46:18.405Z,11.68
2023-06-02T21:49:24.848Z,11.67
2023-06-02T21:52:28.545Z,11.55
2023-06-02T21:55:32.544Z,11.45
2023-06-02T21:58:36.385Z,11.45
2023-06-02T22:01:40.132Z,11.35
2023-06-02T22:04:45.207Z,11.33
2023-06-02T22:07:49.929Z,11.28
2023-06-02T22:10:55.629Z,11.29
2023-06-02T22:13:59.317Z,11.26
2023-06-02T22:17:02.964Z,11.22
2023-06-02T22:20:09.631Z,11.19
2023-06-02T22:23:13.644Z,11.12
2023-06-02T22:26:17.514Z,11.09
2023-06-02T22:29:21.397Z,11.08
2023-06-02T22:32:25.249Z,11.04
2023-06-02T22:35:30.640Z,10.97
2023-06-02T22:38:34.463Z,10.94
2023-06-02T22:41:38.212Z,10.92
2023-06-02T22:44:42.029Z,10.84
2023-06-02T22:47:45.948Z,10.83
2023-06-02T22:50:51.474Z,10.82
2023-06-02T22:53:55.133Z,10.70
2023-06-02T22:56:58.819Z,10.65
2023-06-02T23:00:02.779Z,10.63
2023-06-02T23:03:06.628Z,10.62
2023-06-02T23:06:11.735Z,10.60
2023-06-02T23:09:15.610Z,10.47
2023-06-02T23:12:19.284Z,10.33
2023-06-02T23:15:36.868Z,10.29
2023-06-02T23:18:40.614Z,10.28
2023-06-02T23:21:45.782Z,10.24
2023-06-02T23:24:49.396Z,10.19
2023-06-02T23:27:53.131Z,10.14
2023-06-02T23:30:56.883Z,10.17
2023-06-02T23:34:01.224Z,10.06
2023-06-02T23:37:07.324Z,10.03
2023-06-02T23:40:12.608Z,9.96
2023-06-02T23:43:16.276Z,9.98
2023-06-02T23:46:20.114Z,9.79
2023-06-02T23:49:23.912Z,9.65
2023-06-02T23:52:29.067Z,9.54
2023-06-02T23:55:33.234Z,9.61
2023-06-02T23:58:37.148Z,9.55
